sensor_id;sensor_type;location;lat;lon;timestamp;pressure;altitude;pressure_sealevel;temperature;humidity
19783;BME280;10051;40.294;-3.754;2023-04-15T00:00:02;94327.09;;;16.05;46.90
19783;BME280;10051;40.294;-3.754;2023-04-15T00:02:27;94342.56;;;16.21;46.92
19783;BME280;10051;40.294;-3.754;2023-04-15T00:04:53;94368.50;;;16.33;47.29
19783;BME280;10051;40.294;-3.754;2023-04-15T00:07:19;94348.63;;;16.13;47.46
19783;BME280;10051;40.294;-3.754;2023-04-15T00:09:44;94284.88;;;15.77;47.33
19783;BME280;10051;40.294;-3.754;2023-04-15T00:12:11;94324.91;;;16.08;47.25
19783;BME280;10051;40.294;-3.754;2023-04-15T00:14:36;94340.69;;;16.22;47.34
19783;BME280;10051;40.294;-3.754;2023-04-15T00:17:03;94330.03;;;15.95;47.48
19783;BME280;10051;40.294;-3.754;2023-04-15T00:19:29;94330.66;;;16.01;47.42
19783;BME280;10051;40.294;-3.754;2023-04-15T00:21:55;94353.16;;;16.12;47.50
19783;BME280;10051;40.294;-3.754;2023-04-15T00:24:21;94343.31;;;16.13;46.67
19783;BME280;10051;40.294;-3.754;2023-04-15T00:26:47;94361.91;;;16.22;46.96
19783;BME280;10051;40.294;-3.754;2023-04-15T00:29:13;94368.31;;;16.20;46.95
19783;BME280;10051;40.294;-3.754;2023-04-15T00:31:39;94364.88;;;16.20;46.99
19783;BME280;10051;40.294;-3.754;2023-04-15T00:34:06;94337.66;;;15.88;47.34
19783;BME280;10051;40.294;-3.754;2023-04-15T00:36:32;94329.69;;;15.88;47.32
19783;BME280;10051;40.294;-3.754;2023-04-15T00:38:59;94354.84;;;15.99;47.50
19783;BME280;10051;40.294;-3.754;2023-04-15T00:41:25;94296.66;;;15.54;47.64
19783;BME280;10051;40.294;-3.754;2023-04-15T00:43:50;94314.50;;;15.80;47.44
19783;BME280;10051;40.294;-3.754;2023-04-15T00:46:17;94350.31;;;16.00;47.63
19783;BME280;10051;40.294;-3.754;2023-04-15T00:48:46;94286.38;;;15.61;47.44
19783;BME280;10051;40.294;-3.754;2023-04-15T00:51:12;94334.72;;;15.98;47.45
19783;BME280;10051;40.294;-3.754;2023-04-15T00:53:39;94320.88;;;15.79;47.56
19783;BME280;10051;40.294;-3.754;2023-04-15T00:56:05;94337.34;;;15.89;47.41
19783;BME280;10051;40.294;-3.754;2023-04-15T00:58:31;94307.97;;;15.77;47.44
19783;BME280;10051;40.294;-3.754;2023-04-15T01:00:57;94322.28;;;15.67;47.93
19783;BME280;10051;40.294;-3.754;2023-04-15T01:03:23;94301.69;;;15.64;47.39
19783;BME280;10051;40.294;-3.754;2023-04-15T01:05:49;94300.72;;;15.60;47.67
19783;BME280;10051;40.294;-3.754;2023-04-15T01:08:31;94330.94;;;15.90;47.15
19783;BME280;10051;40.294;-3.754;2023-04-15T01:11:00;94322.31;;;15.85;47.22
19783;BME280;10051;40.294;-3.754;2023-04-15T01:13:28;94323.28;;;15.89;47.04
19783;BME280;10051;40.294;-3.754;2023-04-15T01:15:55;94296.09;;;15.74;46.75
19783;BME280;10051;40.294;-3.754;2023-04-15T01:18:21;94307.13;;;15.68;47.00
19783;BME280;10051;40.294;-3.754;2023-04-15T01:20:47;94298.44;;;15.76;46.86
19783;BME280;10051;40.294;-3.754;2023-04-15T01:23:13;94257.66;;;15.45;46.91
19783;BME280;10051;40.294;-3.754;2023-04-15T01:25:40;94244.53;;;15.40;46.95
19783;BME280;10051;40.294;-3.754;2023-04-15T01:28:06;94244.06;;;15.38;46.73
19783;BME280;10051;40.294;-3.754;2023-04-15T01:30:34;94253.22;;;15.32;46.72
19783;BME280;10051;40.294;-3.754;2023-04-15T01:32:59;94191.19;;;14.84;46.86
19783;BME280;10051;40.294;-3.754;2023-04-15T01:35:25;94281.97;;;15.48;46.75
19783;BME280;10051;40.294;-3.754;2023-04-15T01:37:52;94260.88;;;15.34;46.46
19783;BME280;10051;40.294;-3.754;2023-04-15T01:40:19;94262.75;;;15.33;46.51
19783;BME280;10051;40.294;-3.754;2023-04-15T01:42:45;94269.91;;;15.32;46.83
19783;BME280;10051;40.294;-3.754;2023-04-15T01:45:11;94281.28;;;15.33;46.72
19783;BME280;10051;40.294;-3.754;2023-04-15T01:47:38;94252.69;;;15.12;46.52
19783;BME280;10051;40.294;-3.754;2023-04-15T01:50:04;94287.50;;;15.28;46.47
19783;BME280;10051;40.294;-3.754;2023-04-15T01:52:31;94269.06;;;15.14;46.78
19783;BME280;10051;40.294;-3.754;2023-04-15T01:54:56;94274.97;;;15.11;46.77
19783;BME280;10051;40.294;-3.754;2023-04-15T01:57:22;94297.19;;;15.33;46.60
19783;BME280;10051;40.294;-3.754;2023-04-15T01:59:48;94304.94;;;15.21;46.71
19783;BME280;10051;40.294;-3.754;2023-04-15T02:02:13;94331.91;;;15.23;46.89
19783;BME280;10051;40.294;-3.754;2023-04-15T02:04:39;94326.13;;;15.21;46.95
19783;BME280;10051;40.294;-3.754;2023-04-15T02:07:05;94324.69;;;15.14;46.58
19783;BME280;10051;40.294;-3.754;2023-04-15T02:09:31;94339.59;;;15.10;47.16
19783;BME280;10051;40.294;-3.754;2023-04-15T02:11:57;94345.63;;;15.02;47.37
19783;BME280;10051;40.294;-3.754;2023-04-15T02:14:23;94328.72;;;14.89;47.35
19783;BME280;10051;40.294;-3.754;2023-04-15T02:16:48;94343.09;;;14.97;47.22
19783;BME280;10051;40.294;-3.754;2023-04-15T02:19:14;94340.69;;;14.86;47.29
19783;BME280;10051;40.294;-3.754;2023-04-15T02:21:39;94362.34;;;14.89;47.65
19783;BME280;10051;40.294;-3.754;2023-04-15T02:24:06;94341.22;;;14.75;47.77
19783;BME280;10051;40.294;-3.754;2023-04-15T02:26:32;94319.59;;;14.58;47.92
19783;BME280;10051;40.294;-3.754;2023-04-15T02:28:58;94342.03;;;14.75;47.75
19783;BME280;10051;40.294;-3.754;2023-04-15T02:31:24;94343.38;;;14.72;47.88
19783;BME280;10051;40.294;-3.754;2023-04-15T02:33:50;94353.09;;;14.77;48.17
19783;BME280;10051;40.294;-3.754;2023-04-15T02:36:15;94331.16;;;14.63;48.17
19783;BME280;10051;40.294;-3.754;2023-04-15T02:38:41;94340.66;;;14.64;48.57
19783;BME280;10051;40.294;-3.754;2023-04-15T02:41:10;94331.25;;;14.57;48.78
19783;BME280;10051;40.294;-3.754;2023-04-15T02:43:36;94350.56;;;14.58;49.02
19783;BME280;10051;40.294;-3.754;2023-04-15T02:46:02;94348.53;;;14.55;48.69
19783;BME280;10051;40.294;-3.754;2023-04-15T02:48:28;94343.25;;;14.41;48.43
19783;BME280;10051;40.294;-3.754;2023-04-15T02:51:13;94354.09;;;14.53;48.52
19783;BME280;10051;40.294;-3.754;2023-04-15T02:53:38;94357.06;;;14.38;48.59
19783;BME280;10051;40.294;-3.754;2023-04-15T02:56:04;94347.56;;;14.37;48.41
19783;BME280;10051;40.294;-3.754;2023-04-15T02:58:30;94308.94;;;14.13;48.23
19783;BME280;10051;40.294;-3.754;2023-04-15T03:00:56;94359.13;;;14.55;48.07
19783;BME280;10051;40.294;-3.754;2023-04-15T03:03:21;94333.25;;;14.38;47.59
19783;BME280;10051;40.294;-3.754;2023-04-15T03:05:47;94306.31;;;14.36;47.51
19783;BME280;10051;40.294;-3.754;2023-04-15T03:08:12;94318.25;;;14.47;47.21
19783;BME280;10051;40.294;-3.754;2023-04-15T03:10:39;94365.72;;;14.66;47.47
19783;BME280;10051;40.294;-3.754;2023-04-15T03:13:04;94316.72;;;14.32;47.00
19783;BME280;10051;40.294;-3.754;2023-04-15T03:15:31;94339.19;;;14.35;47.13
19783;BME280;10051;40.294;-3.754;2023-04-15T03:17:57;94342.97;;;14.42;46.77
19783;BME280;10051;40.294;-3.754;2023-04-15T03:20:25;94374.50;;;14.53;47.46
19783;BME280;10051;40.294;-3.754;2023-04-15T03:22:51;94354.19;;;14.25;47.89
19783;BME280;10051;40.294;-3.754;2023-04-15T03:25:17;94361.13;;;14.21;48.26
19783;BME280;10051;40.294;-3.754;2023-04-15T03:27:42;94379.34;;;14.23;48.72
19783;BME280;10051;40.294;-3.754;2023-04-15T03:30:08;94325.53;;;13.91;48.52
19783;BME280;10051;40.294;-3.754;2023-04-15T03:32:34;94349.38;;;14.00;48.41
19783;BME280;10051;40.294;-3.754;2023-04-15T03:34:59;94350.09;;;14.05;48.34
19783;BME280;10051;40.294;-3.754;2023-04-15T03:37:25;94327.66;;;13.89;48.51
19783;BME280;10051;40.294;-3.754;2023-04-15T03:39:51;94367.59;;;14.15;48.08
19783;BME280;10051;40.294;-3.754;2023-04-15T03:42:17;94365.66;;;14.07;48.11
19783;BME280;10051;40.294;-3.754;2023-04-15T03:44:42;94388.16;;;14.18;48.32
19783;BME280;10051;40.294;-3.754;2023-04-15T03:47:10;94387.19;;;14.14;48.10
19783;BME280;10051;40.294;-3.754;2023-04-15T03:49:36;94366.81;;;14.01;47.92
19783;BME280;10051;40.294;-3.754;2023-04-15T03:52:02;94351.06;;;13.81;48.00
19783;BME280;10051;40.294;-3.754;2023-04-15T03:54:27;94397.28;;;14.12;48.12
19783;BME280;10051;40.294;-3.754;2023-04-15T03:56:53;94386.22;;;13.96;48.49
19783;BME280;10051;40.294;-3.754;2023-04-15T03:59:18;94398.94;;;14.08;48.37
19783;BME280;10051;40.294;-3.754;2023-04-15T04:01:44;94368.69;;;13.86;48.35
19783;BME280;10051;40.294;-3.754;2023-04-15T04:04:10;94355.19;;;13.74;48.83
19783;BME280;10051;40.294;-3.754;2023-04-15T04:06:35;94378.78;;;13.84;48.78
19783;BME280;10051;40.294;-3.754;2023-04-15T04:09:01;94393.47;;;13.90;48.46
19783;BME280;10051;40.294;-3.754;2023-04-15T04:11:26;94375.56;;;13.87;48.17
19783;BME280;10051;40.294;-3.754;2023-04-15T04:13:52;94391.09;;;14.03;47.64
19783;BME280;10051;40.294;-3.754;2023-04-15T04:16:18;94360.97;;;13.90;47.69
19783;BME280;10051;40.294;-3.754;2023-04-15T04:18:44;94376.22;;;14.07;46.90
19783;BME280;10051;40.294;-3.754;2023-04-15T04:21:10;94370.16;;;14.06;46.92
19783;BME280;10051;40.294;-3.754;2023-04-15T04:23:36;94380.72;;;14.20;46.93
19783;BME280;10051;40.294;-3.754;2023-04-15T04:26:01;94367.81;;;14.05;46.99
19783;BME280;10051;40.294;-3.754;2023-04-15T04:28:27;94390.50;;;14.20;46.94
19783;BME280;10051;40.294;-3.754;2023-04-15T04:30:52;94386.50;;;14.22;46.91
19783;BME280;10051;40.294;-3.754;2023-04-15T04:33:18;94381.97;;;14.23;46.68
19783;BME280;10051;40.294;-3.754;2023-04-15T04:35:43;94375.53;;;14.15;46.92
19783;BME280;10051;40.294;-3.754;2023-04-15T04:38:09;94356.56;;;13.99;46.92
19783;BME280;10051;40.294;-3.754;2023-04-15T04:40:35;94336.41;;;13.89;46.58
19783;BME280;10051;40.294;-3.754;2023-04-15T04:43:01;94343.63;;;13.83;46.93
19783;BME280;10051;40.294;-3.754;2023-04-15T04:45:26;94334.53;;;13.76;46.92
19783;BME280;10051;40.294;-3.754;2023-04-15T04:47:52;94379.94;;;14.06;46.97
19783;BME280;10051;40.294;-3.754;2023-04-15T04:50:17;94335.13;;;13.73;47.26
19783;BME280;10051;40.294;-3.754;2023-04-15T04:52:43;94396.00;;;13.95;47.69
19783;BME280;10051;40.294;-3.754;2023-04-15T04:55:09;94389.13;;;13.94;47.67
19783;BME280;10051;40.294;-3.754;2023-04-15T04:57:34;94399.34;;;13.87;47.72
19783;BME280;10051;40.294;-3.754;2023-04-15T05:00:01;94382.09;;;13.76;48.30
19783;BME280;10051;40.294;-3.754;2023-04-15T05:02:28;94406.56;;;13.81;48.52
19783;BME280;10051;40.294;-3.754;2023-04-15T05:04:54;94386.91;;;13.74;48.62
19783;BME280;10051;40.294;-3.754;2023-04-15T05:07:19;94341.34;;;13.49;48.62
19783;BME280;10051;40.294;-3.754;2023-04-15T05:09:46;94376.00;;;13.61;48.82
19783;BME280;10051;40.294;-3.754;2023-04-15T05:12:11;94395.81;;;13.78;48.97
19783;BME280;10051;40.294;-3.754;2023-04-15T05:14:42;94376.81;;;13.62;49.20
19783;BME280;10051;40.294;-3.754;2023-04-15T05:17:08;94400.50;;;13.81;49.14
19783;BME280;10051;40.294;-3.754;2023-04-15T05:19:34;94344.38;;;13.42;48.96
19783;BME280;10051;40.294;-3.754;2023-04-15T05:21:59;94390.28;;;13.46;50.01
19783;BME280;10051;40.294;-3.754;2023-04-15T05:24:25;94386.56;;;13.47;50.06
19783;BME280;10051;40.294;-3.754;2023-04-15T05:26:50;94398.81;;;13.57;49.72
19783;BME280;10051;40.294;-3.754;2023-04-15T05:29:16;94395.38;;;13.43;50.27
19783;BME280;10051;40.294;-3.754;2023-04-15T05:31:41;94416.22;;;13.58;50.31
19783;BME280;10051;40.294;-3.754;2023-04-15T05:34:07;94413.16;;;13.51;50.37
19783;BME280;10051;40.294;-3.754;2023-04-15T05:36:33;94428.28;;;13.64;50.40
19783;BME280;10051;40.294;-3.754;2023-04-15T05:38:59;94337.75;;;13.12;49.92
19783;BME280;10051;40.294;-3.754;2023-04-15T05:41:24;94371.00;;;13.13;50.59
19783;BME280;10051;40.294;-3.754;2023-04-15T05:43:50;94420.03;;;13.52;50.60
19783;BME280;10051;40.294;-3.754;2023-04-15T05:46:16;94388.81;;;13.21;51.04
19783;BME280;10051;40.294;-3.754;2023-04-15T05:48:41;94432.56;;;13.60;50.35
19783;BME280;10051;40.294;-3.754;2023-04-15T05:51:07;94437.84;;;13.60;50.50
19783;BME280;10051;40.294;-3.754;2023-04-15T05:53:32;94388.53;;;13.22;50.72
19783;BME280;10051;40.294;-3.754;2023-04-15T05:55:58;94418.25;;;13.47;50.27
19783;BME280;10051;40.294;-3.754;2023-04-15T05:58:23;94434.34;;;13.65;50.62
19783;BME280;10051;40.294;-3.754;2023-04-15T06:00:49;94346.81;;;13.38;49.67
19783;BME280;10051;40.294;-3.754;2023-04-15T06:03:14;94396.78;;;13.82;49.54
19783;BME280;10051;40.294;-3.754;2023-04-15T06:05:40;94445.94;;;14.39;48.72
19783;BME280;10051;40.294;-3.754;2023-04-15T06:08:06;94386.63;;;14.68;46.94
19783;BME280;10051;40.294;-3.754;2023-04-15T06:10:34;94396.63;;;16.52;43.13
19783;BME280;10051;40.294;-3.754;2023-04-15T06:13:03;94436.16;;;17.59;40.85
19783;BME280;10051;40.294;-3.754;2023-04-15T06:15:29;94438.69;;;17.11;41.27
19783;BME280;10051;40.294;-3.754;2023-04-15T06:17:55;94383.28;;;15.85;42.98
19783;BME280;10051;40.294;-3.754;2023-04-15T06:20:21;94458.72;;;15.70;44.39
19783;BME280;10051;40.294;-3.754;2023-04-15T06:22:46;94468.53;;;15.24;45.72
19783;BME280;10051;40.294;-3.754;2023-04-15T06:25:12;94433.19;;;14.69;46.49
19783;BME280;10051;40.294;-3.754;2023-04-15T06:27:38;94459.44;;;14.65;47.31
19783;BME280;10051;40.294;-3.754;2023-04-15T06:30:04;94464.84;;;14.46;47.76
19783;BME280;10051;40.294;-3.754;2023-04-15T06:32:31;94482.69;;;14.40;48.67
19783;BME280;10051;40.294;-3.754;2023-04-15T06:34:57;94455.53;;;14.21;48.52
19783;BME280;10051;40.294;-3.754;2023-04-15T06:37:22;94463.19;;;14.22;48.52
19783;BME280;10051;40.294;-3.754;2023-04-15T06:39:48;94435.38;;;14.11;48.63
19783;BME280;10051;40.294;-3.754;2023-04-15T06:42:13;94423.03;;;14.06;48.73
19783;BME280;10051;40.294;-3.754;2023-04-15T06:44:40;94450.38;;;14.30;48.42
19783;BME280;10051;40.294;-3.754;2023-04-15T06:47:06;94433.91;;;14.33;47.41
19783;BME280;10051;40.294;-3.754;2023-04-15T06:49:33;94410.81;;;14.10;47.69
19783;BME280;10051;40.294;-3.754;2023-04-15T06:51:59;94438.25;;;14.65;46.60
19783;BME280;10051;40.294;-3.754;2023-04-15T06:54:25;94462.13;;;15.02;45.95
19783;BME280;10051;40.294;-3.754;2023-04-15T06:56:51;94463.16;;;15.15;45.43
19783;BME280;10051;40.294;-3.754;2023-04-15T06:59:16;94479.81;;;15.29;44.33
19783;BME280;10051;40.294;-3.754;2023-04-15T07:01:43;94463.34;;;15.41;44.25
19783;BME280;10051;40.294;-3.754;2023-04-15T07:04:09;94464.94;;;15.65;43.30
19783;BME280;10051;40.294;-3.754;2023-04-15T07:06:35;94496.16;;;16.00;42.87
19783;BME280;10051;40.294;-3.754;2023-04-15T07:09:01;94480.31;;;16.09;42.32
19783;BME280;10051;40.294;-3.754;2023-04-15T07:11:29;94514.63;;;16.45;41.96
19783;BME280;10051;40.294;-3.754;2023-04-15T07:13:54;94515.13;;;16.56;41.45
19783;BME280;10051;40.294;-3.754;2023-04-15T07:16:20;94517.53;;;16.75;40.94
19783;BME280;10051;40.294;-3.754;2023-04-15T07:18:46;94495.03;;;16.73;40.17
19783;BME280;10051;40.294;-3.754;2023-04-15T07:21:12;94475.50;;;16.69;39.77
19783;BME280;10051;40.294;-3.754;2023-04-15T07:23:37;94481.00;;;16.81;39.34
19783;BME280;10051;40.294;-3.754;2023-04-15T07:26:03;94490.25;;;16.92;39.32
19783;BME280;10051;40.294;-3.754;2023-04-15T07:28:28;94461.47;;;16.77;39.56
19783;BME280;10051;40.294;-3.754;2023-04-15T07:30:54;94500.25;;;16.95;39.50
19783;BME280;10051;40.294;-3.754;2023-04-15T07:33:22;94486.78;;;16.83;39.88
19783;BME280;10051;40.294;-3.754;2023-04-15T07:35:48;94507.22;;;16.83;40.35
19783;BME280;10051;40.294;-3.754;2023-04-15T07:38:14;94522.53;;;16.86;40.67
19783;BME280;10051;40.294;-3.754;2023-04-15T07:40:39;94486.44;;;16.76;40.10
19783;BME280;10051;40.294;-3.754;2023-04-15T07:43:06;94459.56;;;16.69;39.95
19783;BME280;10051;40.294;-3.754;2023-04-15T07:45:33;94526.69;;;17.18;39.52
19783;BME280;10051;40.294;-3.754;2023-04-15T07:48:00;94481.81;;;16.99;39.22
19783;BME280;10051;40.294;-3.754;2023-04-15T07:50:26;94439.44;;;16.85;39.30
19783;BME280;10051;40.294;-3.754;2023-04-15T07:52:52;94517.78;;;17.49;38.67
19783;BME280;10051;40.294;-3.754;2023-04-15T07:55:18;94543.75;;;17.70;38.53
19783;BME280;10051;40.294;-3.754;2023-04-15T07:57:45;94537.31;;;17.97;37.70
19783;BME280;10051;40.294;-3.754;2023-04-15T08:00:12;94508.97;;;17.93;37.45
19783;BME280;10051;40.294;-3.754;2023-04-15T08:02:38;94520.09;;;18.04;37.02
19783;BME280;10051;40.294;-3.754;2023-04-15T08:05:04;94523.97;;;18.24;36.60
19783;BME280;10051;40.294;-3.754;2023-04-15T08:07:31;94487.50;;;18.16;36.46
19783;BME280;10051;40.294;-3.754;2023-04-15T08:09:57;94504.38;;;18.28;36.14
19783;BME280;10051;40.294;-3.754;2023-04-15T08:12:23;94548.53;;;18.68;36.00
19783;BME280;10051;40.294;-3.754;2023-04-15T08:14:49;94538.97;;;18.67;35.91
19783;BME280;10051;40.294;-3.754;2023-04-15T08:17:15;94518.50;;;18.59;35.40
19783;BME280;10051;40.294;-3.754;2023-04-15T08:19:41;94547.91;;;18.71;35.26
19783;BME280;10051;40.294;-3.754;2023-04-15T08:22:06;94555.25;;;18.75;35.49
19783;BME280;10051;40.294;-3.754;2023-04-15T08:24:32;94482.94;;;18.25;35.10
19783;BME280;10051;40.294;-3.754;2023-04-15T08:26:58;94545.44;;;18.96;35.11
19783;BME280;10051;40.294;-3.754;2023-04-15T08:29:24;94564.47;;;19.16;35.15
19783;BME280;10051;40.294;-3.754;2023-04-15T08:31:50;94534.28;;;18.94;34.59
19783;BME280;10051;40.294;-3.754;2023-04-15T08:34:15;94570.31;;;19.30;34.68
19783;BME280;10051;40.294;-3.754;2023-04-15T08:36:42;94544.50;;;19.22;34.24
19783;BME280;10051;40.294;-3.754;2023-04-15T08:39:07;94556.59;;;19.41;33.46
19783;BME280;10051;40.294;-3.754;2023-04-15T08:41:39;94559.25;;;19.41;34.18
19783;BME280;10051;40.294;-3.754;2023-04-15T08:44:06;94555.56;;;19.54;34.21
19783;BME280;10051;40.294;-3.754;2023-04-15T08:46:32;94557.38;;;19.63;34.01
19783;BME280;10051;40.294;-3.754;2023-04-15T08:49:03;94502.88;;;19.09;33.54
19783;BME280;10051;40.294;-3.754;2023-04-15T08:51:30;94520.75;;;19.29;34.11
19783;BME280;10051;40.294;-3.754;2023-04-15T08:53:57;94502.28;;;19.24;34.45
19783;BME280;10051;40.294;-3.754;2023-04-15T08:56:25;94531.59;;;19.03;34.73
19783;BME280;10051;40.294;-3.754;2023-04-15T08:58:53;94525.53;;;18.94;34.84
19783;BME280;10051;40.294;-3.754;2023-04-15T09:01:19;94575.97;;;19.29;34.16
19783;BME280;10051;40.294;-3.754;2023-04-15T09:03:47;94585.81;;;18.68;35.41
19783;BME280;10051;40.294;-3.754;2023-04-15T09:06:16;94515.69;;;18.17;36.45
19783;BME280;10051;40.294;-3.754;2023-04-15T09:08:41;94562.97;;;18.58;35.80
19783;BME280;10051;40.294;-3.754;2023-04-15T09:11:07;94550.09;;;18.69;35.25
19783;BME280;10051;40.294;-3.754;2023-04-15T09:13:32;94559.72;;;18.92;34.80
19783;BME280;10051;40.294;-3.754;2023-04-15T09:16:01;94592.88;;;19.33;34.82
19783;BME280;10051;40.294;-3.754;2023-04-15T09:18:32;94565.72;;;19.40;34.22
19783;BME280;10051;40.294;-3.754;2023-04-15T09:21:08;94586.13;;;19.78;33.97
19783;BME280;10051;40.294;-3.754;2023-04-15T09:23:36;94526.81;;;19.39;33.83
19783;BME280;10051;40.294;-3.754;2023-04-15T09:26:03;94530.19;;;19.27;33.73
19783;BME280;10051;40.294;-3.754;2023-04-15T09:28:29;94551.28;;;18.81;34.84
19783;BME280;10051;40.294;-3.754;2023-04-15T09:30:56;94592.16;;;18.85;35.98
19783;BME280;10051;40.294;-3.754;2023-04-15T09:33:22;94589.78;;;18.92;35.00
19783;BME280;10051;40.294;-3.754;2023-04-15T09:36:02;94590.88;;;19.00;35.09
19783;BME280;10051;40.294;-3.754;2023-04-15T09:38:30;94554.47;;;19.04;34.57
19783;BME280;10051;40.294;-3.754;2023-04-15T09:40:56;94568.91;;;19.33;33.85
19783;BME280;10051;40.294;-3.754;2023-04-15T09:43:38;94598.97;;;19.64;33.86
19783;BME280;10051;40.294;-3.754;2023-04-15T09:46:04;94591.25;;;19.83;33.42
19783;BME280;10051;40.294;-3.754;2023-04-15T09:48:30;94593.38;;;20.11;33.95
19783;BME280;10051;40.294;-3.754;2023-04-15T09:50:59;94586.69;;;20.26;33.65
19783;BME280;10051;40.294;-3.754;2023-04-15T09:53:26;94601.28;;;20.54;32.87
19783;BME280;10051;40.294;-3.754;2023-04-15T09:55:56;94565.25;;;20.47;32.74
19783;BME280;10051;40.294;-3.754;2023-04-15T09:58:24;94613.84;;;20.87;32.15
19783;BME280;10051;40.294;-3.754;2023-04-15T10:00:52;94573.56;;;20.46;31.83
19783;BME280;10051;40.294;-3.754;2023-04-15T10:03:27;94548.47;;;20.13;32.16
19783;BME280;10051;40.294;-3.754;2023-04-15T10:05:55;94612.56;;;20.59;31.81
19783;BME280;10051;40.294;-3.754;2023-04-15T10:08:23;94578.84;;;19.66;32.95
19783;BME280;10051;40.294;-3.754;2023-04-15T10:10:49;94556.78;;;19.36;33.05
19783;BME280;10051;40.294;-3.754;2023-04-15T10:13:22;94616.72;;;20.02;32.98
19783;BME280;10051;40.294;-3.754;2023-04-15T10:15:57;94607.03;;;20.31;32.52
19783;BME280;10051;40.294;-3.754;2023-04-15T10:18:25;94572.13;;;20.36;31.87
19783;BME280;10051;40.294;-3.754;2023-04-15T10:20:52;94559.69;;;20.53;31.46
19783;BME280;10051;40.294;-3.754;2023-04-15T10:23:19;94589.88;;;20.78;31.62
19783;BME280;10051;40.294;-3.754;2023-04-15T10:25:46;94587.66;;;20.80;31.31
19783;BME280;10051;40.294;-3.754;2023-04-15T10:28:15;94588.47;;;20.93;31.02
19783;BME280;10051;40.294;-3.754;2023-04-15T10:30:41;94564.28;;;21.02;31.50
19783;BME280;10051;40.294;-3.754;2023-04-15T10:33:08;94600.47;;;21.36;31.21
19783;BME280;10051;40.294;-3.754;2023-04-15T10:35:35;94550.03;;;20.98;31.02
19783;BME280;10051;40.294;-3.754;2023-04-15T10:38:01;94597.56;;;21.17;31.65
19783;BME280;10051;40.294;-3.754;2023-04-15T10:40:31;94549.00;;;20.53;31.24
19783;BME280;10051;40.294;-3.754;2023-04-15T10:42:59;94553.78;;;20.47;31.32
19783;BME280;10051;40.294;-3.754;2023-04-15T10:45:33;94578.31;;;20.86;31.72
19783;BME280;10051;40.294;-3.754;2023-04-15T10:48:02;94577.97;;;21.00;31.16
19783;BME280;10051;40.294;-3.754;2023-04-15T10:50:27;94571.84;;;20.75;31.30
19783;BME280;10051;40.294;-3.754;2023-04-15T10:52:55;94600.16;;;21.01;31.60
19783;BME280;10051;40.294;-3.754;2023-04-15T10:57:58;94576.00;;;20.85;31.42
19783;BME280;10051;40.294;-3.754;2023-04-15T11:00:29;94566.84;;;20.86;30.88
19783;BME280;10051;40.294;-3.754;2023-04-15T11:03:05;94552.59;;;20.94;30.46
19783;BME280;10051;40.294;-3.754;2023-04-15T11:08:06;94522.31;;;20.90;30.44
19783;BME280;10051;40.294;-3.754;2023-04-15T11:18:17;94568.25;;;21.45;30.18
19783;BME280;10051;40.294;-3.754;2023-04-15T11:20:45;94566.88;;;21.51;29.92
19783;BME280;10051;40.294;-3.754;2023-04-15T11:23:11;94572.09;;;21.73;29.18
19783;BME280;10051;40.294;-3.754;2023-04-15T11:25:36;94537.44;;;20.98;29.26
19783;BME280;10051;40.294;-3.754;2023-04-15T11:28:03;94571.50;;;21.01;29.70
19783;BME280;10051;40.294;-3.754;2023-04-15T11:30:31;94547.31;;;21.22;29.38
19783;BME280;10051;40.294;-3.754;2023-04-15T11:32:59;94568.75;;;21.10;29.77
19783;BME280;10051;40.294;-3.754;2023-04-15T11:35:25;94530.31;;;20.53;30.53
19783;BME280;10051;40.294;-3.754;2023-04-15T11:37:51;94509.50;;;20.58;30.55
19783;BME280;10051;40.294;-3.754;2023-04-15T11:40:22;94523.44;;;20.89;29.37
19783;BME280;10051;40.294;-3.754;2023-04-15T11:45:32;94551.81;;;21.59;28.81
19783;BME280;10051;40.294;-3.754;2023-04-15T11:48:16;94548.22;;;21.80;28.69
19783;BME280;10051;40.294;-3.754;2023-04-15T11:50:42;94528.97;;;21.90;29.31
19783;BME280;10051;40.294;-3.754;2023-04-15T11:53:09;94527.91;;;22.23;28.48
19783;BME280;10051;40.294;-3.754;2023-04-15T11:55:46;94539.47;;;22.72;27.84
19783;BME280;10051;40.294;-3.754;2023-04-15T11:58:23;94511.25;;;22.78;26.93
19783;BME280;10051;40.294;-3.754;2023-04-15T12:00:59;94493.19;;;22.75;26.80
19783;BME280;10051;40.294;-3.754;2023-04-15T12:03:27;94533.09;;;23.12;27.12
19783;BME280;10051;40.294;-3.754;2023-04-15T12:08:56;94534.63;;;23.49;26.38
19783;BME280;10051;40.294;-3.754;2023-04-15T12:14:20;94535.06;;;23.71;25.87
19783;BME280;10051;40.294;-3.754;2023-04-15T12:16:51;94494.03;;;23.51;25.32
19783;BME280;10051;40.294;-3.754;2023-04-15T12:19:26;94492.47;;;23.30;25.37
19783;BME280;10051;40.294;-3.754;2023-04-15T12:21:57;94479.75;;;23.27;25.39
19783;BME280;10051;40.294;-3.754;2023-04-15T12:24:24;94527.25;;;23.62;25.47
19783;BME280;10051;40.294;-3.754;2023-04-15T12:26:54;94498.84;;;23.61;25.91
19783;BME280;10051;40.294;-3.754;2023-04-15T12:29:26;94513.78;;;23.82;25.58
19783;BME280;10051;40.294;-3.754;2023-04-15T12:31:55;94515.44;;;23.11;26.09
19783;BME280;10051;40.294;-3.754;2023-04-15T12:34:40;94506.63;;;22.95;25.78
19783;BME280;10051;40.294;-3.754;2023-04-15T12:37:07;94508.34;;;23.03;27.11
19783;BME280;10051;40.294;-3.754;2023-04-15T12:39:41;94476.25;;;22.71;26.52
19783;BME280;10051;40.294;-3.754;2023-04-15T12:42:10;94492.94;;;22.64;27.24
19783;BME280;10051;40.294;-3.754;2023-04-15T12:44:37;94489.84;;;22.46;27.48
19783;BME280;10051;40.294;-3.754;2023-04-15T12:47:03;94424.25;;;22.08;27.26
19783;BME280;10051;40.294;-3.754;2023-04-15T12:49:30;94497.16;;;22.81;27.90
19783;BME280;10051;40.294;-3.754;2023-04-15T12:51:58;94487.28;;;22.85;26.27
19783;BME280;10051;40.294;-3.754;2023-04-15T12:54:28;94489.16;;;23.01;26.05
19783;BME280;10051;40.294;-3.754;2023-04-15T12:56:54;94461.09;;;23.14;26.23
19783;BME280;10051;40.294;-3.754;2023-04-15T12:59:20;94467.50;;;23.45;26.26
19783;BME280;10051;40.294;-3.754;2023-04-15T13:01:49;94439.44;;;23.43;25.22
19783;BME280;10051;40.294;-3.754;2023-04-15T13:04:16;94484.81;;;23.91;25.82
19783;BME280;10051;40.294;-3.754;2023-04-15T13:06:42;94466.25;;;24.02;25.99
19783;BME280;10051;40.294;-3.754;2023-04-15T13:09:08;94478.25;;;24.08;25.17